Latest Coastal Weather Observations for Portland Airport

IDV60701

Issued at 2:41 pm EDT Tuesday 9 February 2016 (issued every 10 minutes, with the page automatically refreshed every 10 minutes)

About coastal observations | Map of coastal stations | Coastal observations for VIC | Marine services | Other Formats
Station Details ID: 090171 Name: CASHMORE AIRPORT Lat: -38.31 Lon: 141.47 Height: 80.9 m
Data from the previous 72 hours. | See also: Recent months at Portland Airport
Date/Time
EDT
Temp

°C
Wind Pressure Rain
since 9am
mm
Weather Cloud Vis
km
Sea
Height
m
Swell
Dir
 
Speed
knots
Gust
knots
hPa Trend Height
m
Period
s
Dir
09/02:30pm 22.0 ESE 9 12 1020.2 - 0.0 - - 10 - - - -
09/02:00pm 22.4 SE 8 12 1020.5 - 0.0 - - 10 - - - -
09/01:30pm 20.8 SE 10 15 1020.9 - 0.0 - - 10 - - - -
09/01:00pm 21.5 ESE 8 14 1021.0 - 0.0 - - 10 - - - -
09/12:30pm 20.3 ESE 10 15 1021.3 - 0.0 - - 10 - - - -
09/12:00pm 20.4 ESE 9 14 1021.6 - 0.0 - - 10 - - - -
09/11:30am 21.0 E 8 12 1021.9 - 0.0 - - 10 - - - -
09/11:00am 20.1 ESE 9 14 1022.0 - 0.0 - - 10 - - - -
09/10:30am 20.2 E 9 15 1022.2 - 0.0 - Partly cloudy 10 - - - -
09/10:00am 19.1 E 9 15 1022.3 - 0.0 - Cloudy 10 - - - -
09/09:30am 18.5 ESE 9 14 1022.5 - 0.0 - Cloudy 10 - - - -
09/09:00am 17.8 ESE 8 13 1022.5 - 0.0 - Cloudy 10 - - - -
09/08:30am 17.1 SE 8 12 1022.5 - 0.0 - Cloudy 10 - - - -
09/08:00am 16.7 ESE 6 9 1022.5 - 0.0 - Cloudy 10 - - - -
09/07:30am 16.3 ESE 6 10 1022.5 - 0.0 - Cloudy 10 - - - -
09/07:00am 16.3 ESE 5 8 1022.4 - 0.0 - Cloudy 10 - - - -
09/06:30am 16.3 SE 8 12 1022.2 - 0.0 - Cloudy 10 - - - -
09/06:00am 16.4 SE 7 11 1021.9 - 0.0 - Cloudy 10 - - - -
09/05:30am 16.3 SE 8 12 1021.9 - 0.0 - Cloudy 10 - - - -
09/05:00am 16.4 SE 8 12 1021.9 - 0.0 - Cloudy 10 - - - -
09/04:30am 16.2 ESE 6 10 1021.9 - 0.0 - Cloudy 10 - - - -
09/04:00am 15.6 ESE 6 8 1022.1 - 0.0 - Cloudy 10 - - - -
09/03:30am 15.5 SE 7 9 1022.1 - 0.0 - Partly cloudy 10 - - - -
09/03:00am 16.0 SE 6 10 1022.4 - 0.0 - Cloudy 10 - - - -
09/02:30am 15.8 SE 5 7 1022.8 - 0.0 - Cloudy 10 - - - -
09/02:00am 15.0 SE 5 7 1023.0 - 0.0 - Partly cloudy 10 - - - -
09/01:30am 15.6 SE 8 12 1023.3 - 0.0 - Partly cloudy 10 - - - -
09/01:00am 15.6 SE 6 9 1023.5 - 0.0 - Partly cloudy 10 - - - -
09/12:30am 16.0 SE 8 11 1023.8 - 0.0 - Partly cloudy 10 - - - -
09/12:00am 16.8 SE 8 12 1023.9 - 0.0 - Cloudy 10 - - - -
 
Date/Time
EDT
Temp

°C
Wind Pressure Rain
since 9am
mm
Weather Cloud Vis
km
Sea
Height
m
Swell
Dir
 
Speed
knots
Gust
knots
hPa Trend Height
m
Period
s
Dir
08/11:30pm 16.9 SE 7 10 1024.2 - 0.0 - Cloudy 10 - - - -
08/11:00pm 16.2 SE 6 8 1024.4 - 0.0 - Partly cloudy 10 - - - -
08/10:30pm 16.8 SSE 7 11 1024.4 - 0.0 - Cloudy 10 - - - -
08/10:00pm 16.9 SSE 7 11 1024.4 - 0.0 - Partly cloudy 10 - - - -
08/09:30pm 17.5 SSE 8 12 1024.2 - 0.0 - Cloudy 10 - - - -
08/09:00pm 17.0 SSE 6 9 1024.1 - 0.0 - - 10 - - - -
08/08:30pm 17.7 SSE 7 13 1024.0 - 0.0 - Partly cloudy 10 - - - -
08/08:00pm 18.1 S 9 13 1023.7 - 0.0 - Cloudy 10 - - - -
08/07:30pm 18.6 SSE 8 13 1023.5 - 0.0 - Partly cloudy 10 - - - -
08/07:00pm 18.9 S 10 15 1023.3 - 0.0 - Partly cloudy 10 - - - -
08/06:30pm 19.1 S 9 14 1023.2 - 0.0 - Partly cloudy 10 - - - -
08/06:00pm 19.0 S 8 15 1023.3 - 0.0 - Partly cloudy 10 - - - -
08/05:30pm 19.7 S 9 14 1023.3 - 0.0 - Partly cloudy 10 - - - -
08/05:00pm 19.8 SSW 10 15 1023.4 - 0.0 - Partly cloudy 10 - - - -
08/04:30pm 21.7 S 8 13 1023.5 - 0.0 - Partly cloudy 10 - - - -
08/04:00pm 20.7 S 8 13 1023.6 - 0.0 - Partly cloudy 10 - - - -
08/03:30pm 21.3 S 10 14 1023.7 - 0.0 - Partly cloudy 10 - - - -
08/03:00pm 21.4 S 9 13 1023.8 - 0.0 - Mostly clear 10 - - - -
08/02:30pm 21.4 S 8 12 1023.8 - 0.0 - Partly cloudy 10 - - - -
08/02:00pm 21.4 SSE 9 15 1023.9 - 0.0 - - 10 - - - -
08/01:30pm 20.7 SE 9 16 1024.0 - 0.0 - Partly cloudy 10 - - - -
08/01:00pm 20.3 S 9 13 1024.4 - 0.0 - Partly cloudy 10 - - - -
08/12:30pm 19.8 S 9 13 1024.5 - 0.0 - Partly cloudy 10 - - - -
08/12:00pm 20.4 SSE 9 14 1024.6 - 0.0 - Mostly cloudy 10 - - - -
08/11:30am 18.7 S 9 13 1024.5 - 0.0 - Cloudy 10 - - - -
08/11:00am 19.3 SSE 8 13 1024.3 - 0.0 - Cloudy 10 - - - -
08/10:30am 18.9 SSE 9 13 1024.4 - 0.0 - Partly cloudy 10 - - - -
08/10:00am 17.9 SSE 7 11 1024.3 - 0.0 - Cloudy 10 - - - -
08/09:30am 17.9 SSE 8 13 1024.2 - 0.0 - Cloudy 10 - - - -
08/09:00am 17.6 SE 9 13 1024.0 - 0.2 - Mostly clear 10 - - - -
08/08:30am 17.9 SE 7 10 1023.6 - 0.2 - Cloudy 10 - - - -
08/08:00am 16.8 SE 6 10 1023.3 - 0.2 - Cloudy 10 - - - -
08/07:30am 16.3 SE 7 12 1023.0 - 0.2 - Cloudy 10 - - - -
08/07:00am 16.1 SE 5 7 1022.7 - 0.2 - Cloudy 10 - - - -
08/06:30am 16.1 SE 6 10 1022.3 - 0.2 - Cloudy 10 - - - -
08/06:00am 16.2 SSE 6 10 1022.0 - 0.2 - Cloudy 10 - - - -
08/05:30am 16.2 SSE 6 9 1021.8 - 0.2 - Cloudy 10 - - - -
08/05:00am 16.1 SSE 5 8 1021.7 - 0.2 - Cloudy 10 - - - -
08/04:30am 16.1 SSE 5 9 1021.6 - 0.2 - Cloudy 10 - - - -
08/04:00am 16.2 SSE 5 8 1021.5 - 0.2 - Cloudy 10 - - - -
08/03:30am 16.4 SSE 4 6 1021.6 - 0.2 - Cloudy 10 - - - -
08/03:00am 16.3 SSE 4 6 1021.6 - 0.2 - Cloudy 10 - - - -
08/02:30am 16.3 SE 6 9 1021.7 - 0.2 - Cloudy 10 - - - -
08/02:00am 16.5 SSE 6 9 1021.9 - 0.2 - Cloudy 10 - - - -
08/01:30am 16.5 SSE 6 10 1022.0 - 0.2 - Cloudy 10 - - - -
08/01:00am 16.7 SSE 6 10 1022.0 - 0.2 - Cloudy 10 - - - -
08/12:30am 16.5 SSE 6 9 1022.0 - 0.2 - Cloudy 10 - - - -
08/12:00am 16.6 SSE 5 8 1021.9 - 0.2 - Mostly cloudy 10 - - - -
 
Date/Time
EDT
Temp

°C
Wind Pressure Rain
since 9am
mm
Weather Cloud Vis
km
Sea
Height
m
Swell
Dir
 
Speed
knots
Gust
knots
hPa Trend Height
m
Period
s
Dir
07/11:30pm 16.0 S 5 8 1021.9 - 0.2 - - 10 - - - -
07/11:00pm 16.6 SSE 6 9 1021.8 - 0.2 - Partly cloudy 10 - - - -
07/10:30pm 16.3 SSE 6 9 1021.7 - 0.2 - Partly cloudy 10 - - - -
07/10:00pm 16.4 SSE 6 9 1021.4 - 0.2 - Partly cloudy 10 - - - -
07/09:30pm 17.1 SSE 7 11 1021.1 - 0.2 - Partly cloudy 10 - - - -
07/09:00pm 17.5 S 7 10 1020.7 - 0.2 - Partly cloudy 10 - - - -
07/08:30pm 18.1 SSE 8 12 1020.5 - 0.2 - Partly cloudy 10 - - - -
07/08:00pm 18.3 S 8 11 1020.1 - 0.2 - Partly cloudy 10 - - - -
07/07:30pm 18.9 SSE 9 14 1019.6 - 0.2 - Partly cloudy 10 - - - -
07/07:00pm 18.8 S 9 13 1019.2 - 0.2 - Partly cloudy 10 - - - -
07/06:30pm 19.3 SSE 9 13 1019.0 - 0.2 - Partly cloudy 10 - - - -
07/06:00pm 20.1 SSE 9 13 1018.8 - 0.2 - Mostly cloudy 10 - - - -
07/05:30pm 20.2 S 8 13 1018.8 - 0.2 - Partly cloudy 10 - - - -
07/05:00pm 20.7 S 9 13 1018.8 - 0.2 - Cloudy 10 - - - -
07/04:30pm 20.7 S 10 16 1018.8 - 0.2 - Cloudy 10 - - - -
07/04:00pm 20.8 S 8 14 1018.7 - 0.2 - Partly cloudy 10 - - - -
07/03:30pm 21.4 S 9 13 1018.8 - 0.2 - Partly cloudy 10 - - - -
07/03:00pm 21.1 S 9 14 1018.9 - 0.2 - Mostly clear 10 - - - -
07/02:30pm 21.2 SSW 9 14 1018.9 - 0.2 - - 10 - - - -
07/02:00pm 22.0 S 7 12 1018.8 - 0.2 - - 10 - - - -
07/01:30pm 21.1 S 8 12 1018.9 - 0.2 - Partly cloudy 10 - - - -
07/01:00pm 21.3 S 7 13 1018.9 - 0.2 - - 10 - - - -
07/12:30pm 21.2 S 8 12 1018.9 - 0.2 - - 10 - - - -
07/12:00pm 21.0 SSE 7 11 1018.6 - 0.2 - Mostly clear 10 - - - -
07/11:30am 20.4 SSW 7 9 1018.8 - 0.2 - Partly cloudy 10 - - - -
07/11:00am 19.7 SSW 8 13 1019.0 - 0.2 - Cloudy 10 - - - -
07/10:45am 20.6 S 7 11 1018.9 - 0.2 - Partly cloudy 10 - - - -
07/10:30am 20.2 S 6 11 1018.8 - 0.2 - Cloudy 10 - - - -
07/10:00am 20.0 S 7 11 1018.7 - 0.0 - Partly cloudy 10 - - - -
07/09:32am 19.6 S 7 11 1018.5 - 0.0 - Partly cloudy 10 - - - -
07/09:30am 19.1 S 7 11 1018.5 - 0.0 - Partly cloudy 10 - - - -
07/09:00am 18.7 S 6 13 1018.2 - 0.0 - Mostly clear 10 - - - -
07/08:30am 17.6 S 5 9 1017.5 - 0.0 - - 10 - - - -
07/08:00am 17.1 SSW 4 6 1017.2 - 0.0 - - 10 - - - -
07/07:30am 16.2 SSW 3 5 1017.0 - 0.0 - - 10 - - - -
07/07:00am 16.0 SSW 5 7 1016.7 - 0.0 - - 10 - - - -
07/06:30am 15.6 SSW 4 6 1016.6 - 0.0 - - 9 - - - -
07/06:07am 16.0 SSW 6 8 1016.5 - 0.0 - Partly cloudy 10 - - - -
07/06:00am 16.1 SSW 7 9 1016.5 - 0.0 - Mostly clear 10 - - - -
07/05:32am 16.4 SSW 7 9 1016.2 - 0.0 - Cloudy 8 - - - -
07/05:30am 16.4 SSW 7 9 1016.2 - 0.0 - Cloudy 7 - - - -
07/05:00am 16.4 SSW 7 11 1016.0 - 0.0 - Partly cloudy 5 - - - -
07/04:30am 16.1 SSW 6 8 1015.7 - 0.0 - Cloudy 0.2 - - - -
07/04:00am 12.8 SSW 5 6 1015.5 - 0.0 - Partly cloudy 0.5 - - - -
07/03:30am 12.8 CALM 0 0 1015.2 - 0.0 - Cloudy 0.2 - - - -
07/03:00am 14.1 CALM 0 0 1015.4 - 0.0 - Cloudy 0.2 - - - -
07/02:30am 12.6 CALM 0 0 1015.7 - 0.0 - Cloudy 0.1 - - - -
07/02:05am 14.2 CALM 0 0 1015.8 - 0.0 - Partly cloudy 4 - - - -
07/02:02am 13.6 CALM 0 0 1015.9 - 0.0 - Partly cloudy 10 - - - -
07/02:00am 13.5 CALM 0 0 1015.9 - 0.0 - Partly cloudy 10 - - - -
07/01:30am 13.1 CALM 0 0 1016.3 - 0.0 - Partly cloudy 0.1 - - - -
07/01:21am 13.2 CALM 0 0 1016.4 - 0.0 - Partly cloudy 0.2 - - - -
07/01:00am 13.7 CALM 0 0 1016.4 - 0.0 - - 0.2 - - - -
07/12:30am 14.9 E 1 3 1016.5 - 0.0 - - 0.5 - - - -
07/12:00am 14.9 E 1 3 1016.5 - 0.0 - - 4 - - - -
 
Date/Time
EDT
Temp

°C
Wind Pressure Rain
since 9am
mm
Weather Cloud Vis
km
Sea
Height
m
Swell
Dir
 
Speed
knots
Gust
knots
hPa Trend Height
m
Period
s
Dir
06/11:39pm 15.2 E 3 4 1016.3 - 0.0 - - 6 - - - -
06/11:30pm 16.0 E 3 4 1016.3 - 0.0 - - 10 - - - -
06/11:00pm 16.8 E 3 4 1016.4 - 0.0 - - 10 - - - -
06/10:30pm 16.7 E 3 5 1016.3 - 0.0 - - 10 - - - -
06/10:00pm 16.7 E 3 4 1016.3 - 0.0 - - 10 - - - -
06/09:30pm 17.2 E 4 5 1015.9 - 0.0 - - 10 - - - -
06/09:00pm 18.0 ESE 5 6 1015.6 - 0.0 - - 10 - - - -
06/08:30pm 19.2 ESE 6 8 1015.3 - 0.0 - - 10 - - - -
06/08:00pm 20.0 ESE 7 10 1015.0 - 0.0 - - 10 - - - -
06/07:30pm 21.1 ESE 7 10 1014.9 - 0.0 - - 10 - - - -
06/07:00pm 22.0 ESE 8 12 1014.6 - 0.0 - - 10 - - - -
06/06:30pm 22.8 SSE 8 11 1014.5 - 0.0 - - 10 - - - -
06/06:00pm 23.7 SSE 9 13 1014.5 - 0.0 - - 10 - - - -
06/05:30pm 23.6 SSE 9 14 1014.5 - 0.0 - - 10 - - - -
06/05:00pm 24.3 S 8 13 1014.6 - 0.0 - - 10 - - - -
06/04:30pm 23.8 S 9 13 1014.8 - 0.0 - - 10 - - - -
06/04:00pm 24.6 S 8 13 1015.1 - 0.0 - - 10 - - - -
06/03:30pm 24.8 SSE 8 12 1015.3 - 0.0 - - 10 - - - -
06/03:00pm 24.8 S 8 12 1015.4 - 0.0 - - 10 - - - -

Other Formats:

Comma delimited format used in spreadsheet applications
http://www.bom.gov.au/fwo/IDV60701/IDV60701.94828.axf

JavaScript Object Notation format (JSON) in row-major order
http://www.bom.gov.au/fwo/IDV60701/IDV60701.94828.json